sensor_id;sensor_type;location;lat;lon;timestamp;P1;durP1;ratioP1;P2;durP2;ratioP2
7933;SDS011;4012;48.896;9.192;2022-12-18T00:02:16;48.67;;;28.17;;
7933;SDS011;4012;48.896;9.192;2022-12-18T00:04:42;47.93;;;28.70;;
7933;SDS011;4012;48.896;9.192;2022-12-18T00:07:07;47.13;;;27.90;;
7933;SDS011;4012;48.896;9.192;2022-12-18T00:09:35;48.47;;;28.63;;
7933;SDS011;4012;48.896;9.192;2022-12-18T00:12:01;48.90;;;28.50;;
7933;SDS011;4012;48.896;9.192;2022-12-18T00:14:27;50.40;;;27.97;;
7933;SDS011;4012;48.896;9.192;2022-12-18T00:16:52;45.73;;;28.10;;
7933;SDS011;4012;48.896;9.192;2022-12-18T00:19:18;45.83;;;27.47;;
7933;SDS011;4012;48.896;9.192;2022-12-18T00:21:43;50.50;;;28.63;;
7933;SDS011;4012;48.896;9.192;2022-12-18T00:24:09;52.23;;;27.47;;
7933;SDS011;4012;48.896;9.192;2022-12-18T00:26:36;51.53;;;28.63;;
7933;SDS011;4012;48.896;9.192;2022-12-18T00:29:07;45.73;;;28.30;;
7933;SDS011;4012;48.896;9.192;2022-12-18T00:31:35;48.37;;;27.87;;
7933;SDS011;4012;48.896;9.192;2022-12-18T00:34:02;43.80;;;26.40;;
7933;SDS011;4012;48.896;9.192;2022-12-18T00:36:29;47.33;;;28.53;;
7933;SDS011;4012;48.896;9.192;2022-12-18T00:38:58;46.40;;;26.60;;
7933;SDS011;4012;48.896;9.192;2022-12-18T00:41:25;47.80;;;29.87;;
7933;SDS011;4012;48.896;9.192;2022-12-18T00:44:11;50.47;;;28.42;;
7933;SDS011;4012;48.896;9.192;2022-12-18T00:46:38;54.28;;;31.67;;
7933;SDS011;4012;48.896;9.192;2022-12-18T00:49:04;51.75;;;30.45;;
7933;SDS011;4012;48.896;9.192;2022-12-18T00:51:30;53.50;;;30.53;;
7933;SDS011;4012;48.896;9.192;2022-12-18T00:53:55;55.07;;;32.37;;
7933;SDS011;4012;48.896;9.192;2022-12-18T00:56:21;53.97;;;31.30;;
7933;SDS011;4012;48.896;9.192;2022-12-18T00:58:47;58.17;;;31.30;;
7933;SDS011;4012;48.896;9.192;2022-12-18T01:01:13;60.47;;;33.23;;
7933;SDS011;4012;48.896;9.192;2022-12-18T01:03:39;56.07;;;33.20;;
7933;SDS011;4012;48.896;9.192;2022-12-18T01:06:08;53.60;;;32.30;;
7933;SDS011;4012;48.896;9.192;2022-12-18T01:08:35;49.10;;;29.67;;
7933;SDS011;4012;48.896;9.192;2022-12-18T01:11:01;52.57;;;32.23;;
7933;SDS011;4012;48.896;9.192;2022-12-18T01:13:33;55.05;;;32.38;;
7933;SDS011;4012;48.896;9.192;2022-12-18T01:15:59;56.23;;;32.77;;
7933;SDS011;4012;48.896;9.192;2022-12-18T01:18:24;60.73;;;32.97;;
7933;SDS011;4012;48.896;9.192;2022-12-18T01:20:50;54.43;;;31.57;;
7933;SDS011;4012;48.896;9.192;2022-12-18T01:23:16;55.77;;;32.73;;
7933;SDS011;4012;48.896;9.192;2022-12-18T01:25:41;58.87;;;34.53;;
7933;SDS011;4012;48.896;9.192;2022-12-18T01:28:07;62.03;;;34.60;;
7933;SDS011;4012;48.896;9.192;2022-12-18T01:30:32;59.60;;;33.20;;
7933;SDS011;4012;48.896;9.192;2022-12-18T01:32:58;56.13;;;32.60;;
7933;SDS011;4012;48.896;9.192;2022-12-18T01:35:23;57.97;;;33.50;;
7933;SDS011;4012;48.896;9.192;2022-12-18T01:37:49;58.03;;;32.40;;
7933;SDS011;4012;48.896;9.192;2022-12-18T01:40:19;54.25;;;32.60;;
7933;SDS011;4012;48.896;9.192;2022-12-18T01:42:45;58.30;;;33.93;;
7933;SDS011;4012;48.896;9.192;2022-12-18T01:47:43;56.67;;;32.93;;
7933;SDS011;4012;48.896;9.192;2022-12-18T01:53:15;54.47;;;31.00;;
7933;SDS011;4012;48.896;9.192;2022-12-18T01:55:48;54.67;;;31.33;;
7933;SDS011;4012;48.896;9.192;2022-12-18T01:58:19;55.28;;;30.35;;
7933;SDS011;4012;48.896;9.192;2022-12-18T02:00:47;55.65;;;30.92;;
7933;SDS011;4012;48.896;9.192;2022-12-18T02:03:12;55.50;;;30.37;;
7933;SDS011;4012;48.896;9.192;2022-12-18T02:05:46;53.27;;;29.50;;
7933;SDS011;4012;48.896;9.192;2022-12-18T02:08:27;50.42;;;29.08;;
7933;SDS011;4012;48.896;9.192;2022-12-18T02:13:57;52.27;;;29.73;;
7933;SDS011;4012;48.896;9.192;2022-12-18T02:16:36;47.20;;;28.73;;
7933;SDS011;4012;48.896;9.192;2022-12-18T02:22:37;52.70;;;30.75;;
7933;SDS011;4012;48.896;9.192;2022-12-18T02:27:36;54.65;;;29.77;;
7933;SDS011;4012;48.896;9.192;2022-12-18T02:30:04;55.38;;;31.35;;
7933;SDS011;4012;48.896;9.192;2022-12-18T02:32:34;54.27;;;28.30;;
7933;SDS011;4012;48.896;9.192;2022-12-18T02:35:04;57.57;;;30.50;;
7933;SDS011;4012;48.896;9.192;2022-12-18T02:37:33;47.07;;;27.57;;
7933;SDS011;4012;48.896;9.192;2022-12-18T02:40:00;46.80;;;26.73;;
7933;SDS011;4012;48.896;9.192;2022-12-18T02:42:28;51.77;;;29.17;;
7933;SDS011;4012;48.896;9.192;2022-12-18T02:44:54;49.77;;;27.63;;
7933;SDS011;4012;48.896;9.192;2022-12-18T02:47:20;51.33;;;27.10;;
7933;SDS011;4012;48.896;9.192;2022-12-18T02:58:16;46.70;;;27.60;;
7933;SDS011;4012;48.896;9.192;2022-12-18T03:03:33;45.53;;;27.50;;
7933;SDS011;4012;48.896;9.192;2022-12-18T03:06:21;45.13;;;25.43;;
7933;SDS011;4012;48.896;9.192;2022-12-18T03:08:58;43.70;;;25.63;;
7933;SDS011;4012;48.896;9.192;2022-12-18T03:11:28;43.00;;;24.73;;
7933;SDS011;4012;48.896;9.192;2022-12-18T03:14:16;42.00;;;26.08;;
7933;SDS011;4012;48.896;9.192;2022-12-18T03:16:46;39.55;;;23.58;;
7933;SDS011;4012;48.896;9.192;2022-12-18T03:19:16;41.53;;;24.63;;
7933;SDS011;4012;48.896;9.192;2022-12-18T03:21:47;41.17;;;23.47;;
7933;SDS011;4012;48.896;9.192;2022-12-18T03:24:15;41.67;;;27.00;;
7933;SDS011;4012;48.896;9.192;2022-12-18T03:26:44;43.33;;;24.58;;
7933;SDS011;4012;48.896;9.192;2022-12-18T03:29:18;42.55;;;24.15;;
7933;SDS011;4012;48.896;9.192;2022-12-18T03:31:49;42.22;;;23.83;;
7933;SDS011;4012;48.896;9.192;2022-12-18T03:34:23;40.03;;;22.87;;
7933;SDS011;4012;48.896;9.192;2022-12-18T03:36:54;43.20;;;23.25;;
7933;SDS011;4012;48.896;9.192;2022-12-18T03:39:19;38.07;;;22.40;;
7933;SDS011;4012;48.896;9.192;2022-12-18T03:44:31;39.13;;;22.73;;
7933;SDS011;4012;48.896;9.192;2022-12-18T03:47:07;38.13;;;23.35;;
7933;SDS011;4012;48.896;9.192;2022-12-18T03:52:52;39.40;;;22.75;;
7933;SDS011;4012;48.896;9.192;2022-12-18T03:55:23;34.67;;;20.30;;
7933;SDS011;4012;48.896;9.192;2022-12-18T03:57:52;39.53;;;23.23;;
7933;SDS011;4012;48.896;9.192;2022-12-18T04:00:19;36.65;;;22.77;;
7933;SDS011;4012;48.896;9.192;2022-12-18T04:02:47;36.83;;;21.70;;
7933;SDS011;4012;48.896;9.192;2022-12-18T04:05:16;36.88;;;23.27;;
7933;SDS011;4012;48.896;9.192;2022-12-18T04:07:45;38.65;;;22.30;;
7933;SDS011;4012;48.896;9.192;2022-12-18T04:10:12;34.35;;;20.77;;
7933;SDS011;4012;48.896;9.192;2022-12-18T04:12:39;36.07;;;21.83;;
7933;SDS011;4012;48.896;9.192;2022-12-18T04:15:05;34.60;;;19.27;;
7933;SDS011;4012;48.896;9.192;2022-12-18T04:17:31;39.47;;;22.90;;
7933;SDS011;4012;48.896;9.192;2022-12-18T04:19:57;32.20;;;20.97;;
7933;SDS011;4012;48.896;9.192;2022-12-18T04:22:23;30.70;;;19.30;;
7933;SDS011;4012;48.896;9.192;2022-12-18T04:24:48;38.20;;;20.43;;
7933;SDS011;4012;48.896;9.192;2022-12-18T04:27:14;31.33;;;19.33;;
7933;SDS011;4012;48.896;9.192;2022-12-18T04:29:40;35.87;;;21.67;;
7933;SDS011;4012;48.896;9.192;2022-12-18T04:32:05;35.73;;;20.87;;
7933;SDS011;4012;48.896;9.192;2022-12-18T04:34:31;32.57;;;20.73;;
7933;SDS011;4012;48.896;9.192;2022-12-18T04:36:57;33.10;;;20.27;;
7933;SDS011;4012;48.896;9.192;2022-12-18T04:39:22;29.87;;;17.93;;
7933;SDS011;4012;48.896;9.192;2022-12-18T04:41:48;34.07;;;19.80;;
7933;SDS011;4012;48.896;9.192;2022-12-18T04:44:14;31.77;;;18.43;;
7933;SDS011;4012;48.896;9.192;2022-12-18T04:46:39;32.97;;;18.93;;
7933;SDS011;4012;48.896;9.192;2022-12-18T04:49:05;29.33;;;19.27;;
7933;SDS011;4012;48.896;9.192;2022-12-18T04:51:31;33.40;;;19.27;;
7933;SDS011;4012;48.896;9.192;2022-12-18T04:53:59;33.00;;;19.07;;
7933;SDS011;4012;48.896;9.192;2022-12-18T04:56:24;32.87;;;20.27;;
7933;SDS011;4012;48.896;9.192;2022-12-18T04:58:50;32.30;;;19.43;;
7933;SDS011;4012;48.896;9.192;2022-12-18T05:01:16;34.17;;;20.73;;
7933;SDS011;4012;48.896;9.192;2022-12-18T05:03:43;32.13;;;20.52;;
7933;SDS011;4012;48.896;9.192;2022-12-18T05:06:08;35.07;;;20.03;;
7933;SDS011;4012;48.896;9.192;2022-12-18T05:08:35;31.25;;;19.52;;
7933;SDS011;4012;48.896;9.192;2022-12-18T05:11:01;35.13;;;20.63;;
7933;SDS011;4012;48.896;9.192;2022-12-18T05:13:29;31.27;;;20.30;;
7933;SDS011;4012;48.896;9.192;2022-12-18T05:15:55;33.22;;;19.52;;
7933;SDS011;4012;48.896;9.192;2022-12-18T05:18:22;31.57;;;19.57;;
7933;SDS011;4012;48.896;9.192;2022-12-18T05:20:49;33.70;;;22.02;;
7933;SDS011;4012;48.896;9.192;2022-12-18T05:23:15;30.07;;;19.53;;
7933;SDS011;4012;48.896;9.192;2022-12-18T05:25:40;35.53;;;20.90;;
7933;SDS011;4012;48.896;9.192;2022-12-18T05:28:06;32.87;;;20.43;;
7933;SDS011;4012;48.896;9.192;2022-12-18T05:30:32;35.50;;;20.57;;
7933;SDS011;4012;48.896;9.192;2022-12-18T05:32:57;33.37;;;20.43;;
7933;SDS011;4012;48.896;9.192;2022-12-18T05:35:23;35.20;;;21.63;;
7933;SDS011;4012;48.896;9.192;2022-12-18T05:37:48;36.40;;;21.83;;
7933;SDS011;4012;48.896;9.192;2022-12-18T05:40:14;33.63;;;20.57;;
7933;SDS011;4012;48.896;9.192;2022-12-18T05:42:40;37.73;;;21.63;;
7933;SDS011;4012;48.896;9.192;2022-12-18T05:45:05;34.73;;;21.33;;
7933;SDS011;4012;48.896;9.192;2022-12-18T05:47:31;39.70;;;22.33;;
7933;SDS011;4012;48.896;9.192;2022-12-18T05:49:57;39.93;;;22.80;;
7933;SDS011;4012;48.896;9.192;2022-12-18T05:52:23;36.87;;;21.60;;
7933;SDS011;4012;48.896;9.192;2022-12-18T05:54:48;38.07;;;22.33;;
7933;SDS011;4012;48.896;9.192;2022-12-18T05:57:14;40.23;;;23.13;;
7933;SDS011;4012;48.896;9.192;2022-12-18T05:59:40;37.43;;;21.13;;
7933;SDS011;4012;48.896;9.192;2022-12-18T06:02:05;38.43;;;22.10;;
7933;SDS011;4012;48.896;9.192;2022-12-18T06:04:31;37.00;;;21.07;;
7933;SDS011;4012;48.896;9.192;2022-12-18T06:06:56;40.13;;;21.83;;
7933;SDS011;4012;48.896;9.192;2022-12-18T06:09:22;38.87;;;23.17;;
7933;SDS011;4012;48.896;9.192;2022-12-18T06:11:48;40.13;;;22.37;;
7933;SDS011;4012;48.896;9.192;2022-12-18T06:14:16;37.55;;;22.27;;
7933;SDS011;4012;48.896;9.192;2022-12-18T06:16:42;38.47;;;22.67;;
7933;SDS011;4012;48.896;9.192;2022-12-18T06:19:12;37.20;;;21.33;;
7933;SDS011;4012;48.896;9.192;2022-12-18T06:21:41;34.90;;;21.20;;
7933;SDS011;4012;48.896;9.192;2022-12-18T06:24:06;39.53;;;23.60;;
7933;SDS011;4012;48.896;9.192;2022-12-18T06:26:32;35.23;;;21.23;;
7933;SDS011;4012;48.896;9.192;2022-12-18T06:28:58;37.90;;;21.70;;
7933;SDS011;4012;48.896;9.192;2022-12-18T06:31:24;32.70;;;20.17;;
7933;SDS011;4012;48.896;9.192;2022-12-18T06:33:50;36.20;;;22.30;;
7933;SDS011;4012;48.896;9.192;2022-12-18T06:36:16;38.03;;;21.93;;
7933;SDS011;4012;48.896;9.192;2022-12-18T06:38:42;38.37;;;22.03;;
7933;SDS011;4012;48.896;9.192;2022-12-18T06:41:15;37.50;;;22.97;;
7933;SDS011;4012;48.896;9.192;2022-12-18T06:43:43;40.03;;;23.07;;
7933;SDS011;4012;48.896;9.192;2022-12-18T06:46:08;38.30;;;21.97;;
7933;SDS011;4012;48.896;9.192;2022-12-18T06:48:34;39.93;;;23.10;;
7933;SDS011;4012;48.896;9.192;2022-12-18T06:51:00;36.07;;;22.57;;
7933;SDS011;4012;48.896;9.192;2022-12-18T06:53:26;39.33;;;22.50;;
7933;SDS011;4012;48.896;9.192;2022-12-18T06:55:52;39.07;;;22.93;;
7933;SDS011;4012;48.896;9.192;2022-12-18T06:58:24;40.75;;;22.80;;
7933;SDS011;4012;48.896;9.192;2022-12-18T07:00:49;37.30;;;21.37;;
7933;SDS011;4012;48.896;9.192;2022-12-18T07:03:15;38.83;;;22.90;;
7933;SDS011;4012;48.896;9.192;2022-12-18T07:05:40;37.50;;;21.70;;
7933;SDS011;4012;48.896;9.192;2022-12-18T07:08:06;34.10;;;20.97;;
7933;SDS011;4012;48.896;9.192;2022-12-18T07:10:32;34.37;;;20.60;;
7933;SDS011;4012;48.896;9.192;2022-12-18T07:12:57;40.60;;;21.37;;
7933;SDS011;4012;48.896;9.192;2022-12-18T07:15:23;38.63;;;21.40;;
7933;SDS011;4012;48.896;9.192;2022-12-18T07:17:48;37.60;;;21.60;;
7933;SDS011;4012;48.896;9.192;2022-12-18T07:20:14;36.07;;;21.67;;
7933;SDS011;4012;48.896;9.192;2022-12-18T07:22:39;37.77;;;21.77;;
7933;SDS011;4012;48.896;9.192;2022-12-18T07:25:05;37.40;;;21.50;;
7933;SDS011;4012;48.896;9.192;2022-12-18T07:27:31;38.60;;;20.50;;
7933;SDS011;4012;48.896;9.192;2022-12-18T07:29:57;36.80;;;20.97;;
7933;SDS011;4012;48.896;9.192;2022-12-18T07:32:23;34.07;;;21.30;;
7933;SDS011;4012;48.896;9.192;2022-12-18T07:34:48;37.63;;;21.97;;
7933;SDS011;4012;48.896;9.192;2022-12-18T07:37:14;38.23;;;23.73;;
7933;SDS011;4012;48.896;9.192;2022-12-18T07:39:39;34.33;;;21.43;;
7933;SDS011;4012;48.896;9.192;2022-12-18T07:42:05;36.03;;;20.60;;
7933;SDS011;4012;48.896;9.192;2022-12-18T07:44:49;31.40;;;20.00;;
7933;SDS011;4012;48.896;9.192;2022-12-18T07:47:15;31.53;;;19.73;;
7933;SDS011;4012;48.896;9.192;2022-12-18T07:49:40;31.53;;;19.40;;
7933;SDS011;4012;48.896;9.192;2022-12-18T07:52:06;35.33;;;21.13;;
7933;SDS011;4012;48.896;9.192;2022-12-18T07:54:31;35.30;;;20.20;;
7933;SDS011;4012;48.896;9.192;2022-12-18T07:56:57;31.37;;;19.53;;
7933;SDS011;4012;48.896;9.192;2022-12-18T07:59:23;30.27;;;18.83;;
7933;SDS011;4012;48.896;9.192;2022-12-18T08:01:48;33.07;;;20.07;;
7933;SDS011;4012;48.896;9.192;2022-12-18T08:04:14;29.80;;;18.50;;
7933;SDS011;4012;48.896;9.192;2022-12-18T08:06:39;32.40;;;18.27;;
7933;SDS011;4012;48.896;9.192;2022-12-18T08:09:05;30.47;;;18.47;;
7933;SDS011;4012;48.896;9.192;2022-12-18T08:11:30;28.23;;;18.37;;
7933;SDS011;4012;48.896;9.192;2022-12-18T08:13:56;32.20;;;19.17;;
7933;SDS011;4012;48.896;9.192;2022-12-18T08:16:23;34.17;;;18.83;;
7933;SDS011;4012;48.896;9.192;2022-12-18T08:18:48;33.70;;;19.30;;
7933;SDS011;4012;48.896;9.192;2022-12-18T08:21:26;32.97;;;20.53;;
7933;SDS011;4012;48.896;9.192;2022-12-18T08:23:54;36.13;;;19.70;;
7933;SDS011;4012;48.896;9.192;2022-12-18T08:26:21;36.13;;;19.70;;
7933;SDS011;4012;48.896;9.192;2022-12-18T08:28:48;30.73;;;18.90;;
7933;SDS011;4012;48.896;9.192;2022-12-18T08:31:14;28.63;;;18.13;;
7933;SDS011;4012;48.896;9.192;2022-12-18T08:33:40;32.07;;;20.07;;
7933;SDS011;4012;48.896;9.192;2022-12-18T08:36:06;32.43;;;19.63;;
7933;SDS011;4012;48.896;9.192;2022-12-18T08:38:33;30.63;;;18.95;;
7933;SDS011;4012;48.896;9.192;2022-12-18T08:41:03;33.63;;;19.80;;
7933;SDS011;4012;48.896;9.192;2022-12-18T08:43:33;31.37;;;19.00;;
7933;SDS011;4012;48.896;9.192;2022-12-18T08:46:18;29.37;;;16.90;;
7933;SDS011;4012;48.896;9.192;2022-12-18T08:48:44;29.47;;;17.73;;
7933;SDS011;4012;48.896;9.192;2022-12-18T08:51:10;30.67;;;18.03;;
7933;SDS011;4012;48.896;9.192;2022-12-18T08:53:36;29.90;;;18.30;;
7933;SDS011;4012;48.896;9.192;2022-12-18T08:56:02;29.97;;;18.33;;
7933;SDS011;4012;48.896;9.192;2022-12-18T08:58:28;36.77;;;18.33;;
7933;SDS011;4012;48.896;9.192;2022-12-18T09:00:54;29.47;;;17.47;;
7933;SDS011;4012;48.896;9.192;2022-12-18T09:03:24;33.70;;;19.50;;
7933;SDS011;4012;48.896;9.192;2022-12-18T09:05:49;33.20;;;17.50;;
7933;SDS011;4012;48.896;9.192;2022-12-18T09:08:15;34.60;;;19.23;;
7933;SDS011;4012;48.896;9.192;2022-12-18T09:10:44;31.57;;;19.17;;
7933;SDS011;4012;48.896;9.192;2022-12-18T09:13:11;33.23;;;19.70;;
7933;SDS011;4012;48.896;9.192;2022-12-18T09:15:41;33.13;;;18.33;;
7933;SDS011;4012;48.896;9.192;2022-12-18T09:18:10;27.97;;;17.77;;
7933;SDS011;4012;48.896;9.192;2022-12-18T09:20:37;27.43;;;16.07;;
7933;SDS011;4012;48.896;9.192;2022-12-18T09:23:03;25.20;;;15.53;;
7933;SDS011;4012;48.896;9.192;2022-12-18T09:25:30;24.67;;;15.63;;
7933;SDS011;4012;48.896;9.192;2022-12-18T09:28:00;27.37;;;15.63;;
7933;SDS011;4012;48.896;9.192;2022-12-18T09:30:40;25.13;;;15.73;;
7933;SDS011;4012;48.896;9.192;2022-12-18T09:33:07;23.67;;;15.93;;
7933;SDS011;4012;48.896;9.192;2022-12-18T09:35:35;29.33;;;15.37;;
7933;SDS011;4012;48.896;9.192;2022-12-18T09:38:01;24.63;;;14.33;;
7933;SDS011;4012;48.896;9.192;2022-12-18T09:40:28;22.20;;;13.70;;
7933;SDS011;4012;48.896;9.192;2022-12-18T09:43:00;22.70;;;12.60;;
7933;SDS011;4012;48.896;9.192;2022-12-18T09:45:47;20.60;;;11.70;;
7933;SDS011;4012;48.896;9.192;2022-12-18T09:48:21;28.80;;;13.33;;
7933;SDS011;4012;48.896;9.192;2022-12-18T09:50:51;24.37;;;13.20;;
7933;SDS011;4012;48.896;9.192;2022-12-18T09:53:24;24.17;;;13.60;;
7933;SDS011;4012;48.896;9.192;2022-12-18T09:55:52;20.30;;;11.80;;
7933;SDS011;4012;48.896;9.192;2022-12-18T10:01:01;21.97;;;13.37;;
7933;SDS011;4012;48.896;9.192;2022-12-18T10:03:26;19.93;;;13.03;;
7933;SDS011;4012;48.896;9.192;2022-12-18T10:05:59;20.70;;;13.10;;
7933;SDS011;4012;48.896;9.192;2022-12-18T10:11:20;26.93;;;15.00;;
7933;SDS011;4012;48.896;9.192;2022-12-18T10:13:49;24.00;;;13.90;;
7933;SDS011;4012;48.896;9.192;2022-12-18T10:19:02;25.80;;;14.47;;
7933;SDS011;4012;48.896;9.192;2022-12-18T10:21:32;27.83;;;15.70;;
7933;SDS011;4012;48.896;9.192;2022-12-18T10:26:48;25.03;;;16.33;;
7933;SDS011;4012;48.896;9.192;2022-12-18T10:29:15;28.43;;;16.23;;
7933;SDS011;4012;48.896;9.192;2022-12-18T10:31:41;28.47;;;16.83;;
7933;SDS011;4012;48.896;9.192;2022-12-18T10:34:11;28.67;;;16.17;;
7933;SDS011;4012;48.896;9.192;2022-12-18T10:36:40;29.33;;;16.37;;
7933;SDS011;4012;48.896;9.192;2022-12-18T10:41:49;26.17;;;15.07;;
7933;SDS011;4012;48.896;9.192;2022-12-18T10:44:23;24.80;;;15.20;;
7933;SDS011;4012;48.896;9.192;2022-12-18T10:46:55;26.13;;;14.80;;
7933;SDS011;4012;48.896;9.192;2022-12-18T10:49:29;22.77;;;13.43;;
7933;SDS011;4012;48.896;9.192;2022-12-18T10:52:30;35.27;;;16.67;;
7933;SDS011;4012;48.896;9.192;2022-12-18T10:59:59;23.83;;;13.40;;
7933;SDS011;4012;48.896;9.192;2022-12-18T11:02:38;27.43;;;14.20;;
7933;SDS011;4012;48.896;9.192;2022-12-18T11:05:26;26.30;;;15.07;;
7933;SDS011;4012;48.896;9.192;2022-12-18T11:07:57;25.53;;;15.67;;
7933;SDS011;4012;48.896;9.192;2022-12-18T11:10:31;26.30;;;13.87;;
7933;SDS011;4012;48.896;9.192;2022-12-18T11:13:14;26.53;;;15.27;;
7933;SDS011;4012;48.896;9.192;2022-12-18T11:15:42;24.87;;;14.67;;
7933;SDS011;4012;48.896;9.192;2022-12-18T11:18:15;29.27;;;16.40;;
7933;SDS011;4012;48.896;9.192;2022-12-18T11:20:50;28.43;;;17.07;;
7933;SDS011;4012;48.896;9.192;2022-12-18T11:23:18;29.67;;;16.47;;
7933;SDS011;4012;48.896;9.192;2022-12-18T11:26:05;64.67;;;29.77;;
7933;SDS011;4012;48.896;9.192;2022-12-18T11:28:38;43.00;;;24.53;;
7933;SDS011;4012;48.896;9.192;2022-12-18T11:36:36;31.33;;;17.37;;
7933;SDS011;4012;48.896;9.192;2022-12-18T11:39:15;31.07;;;16.40;;
7933;SDS011;4012;48.896;9.192;2022-12-18T11:41:59;32.37;;;18.67;;
7933;SDS011;4012;48.896;9.192;2022-12-18T11:49:50;30.53;;;17.30;;
7933;SDS011;4012;48.896;9.192;2022-12-18T11:52:22;30.30;;;18.17;;
7933;SDS011;4012;48.896;9.192;2022-12-18T11:54:52;30.97;;;16.37;;
7933;SDS011;4012;48.896;9.192;2022-12-18T12:02:38;30.67;;;17.27;;
7933;SDS011;4012;48.896;9.192;2022-12-18T12:05:23;46.10;;;24.67;;
7933;SDS011;4012;48.896;9.192;2022-12-18T12:13:18;35.13;;;19.13;;
7933;SDS011;4012;48.896;9.192;2022-12-18T12:23:54;30.43;;;17.20;;
7933;SDS011;4012;48.896;9.192;2022-12-18T12:26:45;38.80;;;20.93;;
7933;SDS011;4012;48.896;9.192;2022-12-18T12:32:12;30.97;;;17.30;;
7933;SDS011;4012;48.896;9.192;2022-12-18T12:34:52;31.87;;;17.20;;
7933;SDS011;4012;48.896;9.192;2022-12-18T12:40:06;30.30;;;17.50;;
7933;SDS011;4012;48.896;9.192;2022-12-18T12:45:33;30.07;;;17.50;;
7933;SDS011;4012;48.896;9.192;2022-12-18T12:48:04;32.93;;;18.10;;
7933;SDS011;4012;48.896;9.192;2022-12-18T12:50:33;29.67;;;15.30;;
7933;SDS011;4012;48.896;9.192;2022-12-18T12:53:00;24.00;;;12.10;;
7933;SDS011;4012;48.896;9.192;2022-12-18T12:55:30;29.53;;;16.43;;
7933;SDS011;4012;48.896;9.192;2022-12-18T12:58:02;30.43;;;16.50;;
7933;SDS011;4012;48.896;9.192;2022-12-18T13:00:56;29.03;;;15.60;;
7933;SDS011;4012;48.896;9.192;2022-12-18T13:03:46;32.60;;;16.87;;
7933;SDS011;4012;48.896;9.192;2022-12-18T13:06:31;29.73;;;16.57;;
7933;SDS011;4012;48.896;9.192;2022-12-18T13:09:11;36.50;;;19.17;;
7933;SDS011;4012;48.896;9.192;2022-12-18T13:11:40;27.50;;;16.83;;
7933;SDS011;4012;48.896;9.192;2022-12-18T13:14:31;25.00;;;14.17;;
7933;SDS011;4012;48.896;9.192;2022-12-18T13:17:14;25.43;;;13.97;;
7933;SDS011;4012;48.896;9.192;2022-12-18T13:22:35;26.93;;;15.53;;
7933;SDS011;4012;48.896;9.192;2022-12-18T13:25:26;31.53;;;16.93;;
7933;SDS011;4012;48.896;9.192;2022-12-18T13:51:50;22.70;;;11.37;;
7933;SDS011;4012;48.896;9.192;2022-12-18T13:54:36;29.13;;;15.27;;
7933;SDS011;4012;48.896;9.192;2022-12-18T13:57:05;23.83;;;12.70;;
7933;SDS011;4012;48.896;9.192;2022-12-18T14:00:14;24.20;;;12.30;;
7933;SDS011;4012;48.896;9.192;2022-12-18T14:02:44;25.67;;;14.60;;
7933;SDS011;4012;48.896;9.192;2022-12-18T14:05:23;29.47;;;16.67;;
7933;SDS011;4012;48.896;9.192;2022-12-18T14:08:12;31.00;;;15.67;;
7933;SDS011;4012;48.896;9.192;2022-12-18T14:10:40;29.77;;;16.40;;
7933;SDS011;4012;48.896;9.192;2022-12-18T14:13:08;27.77;;;16.67;;
7933;SDS011;4012;48.896;9.192;2022-12-18T14:15:38;25.30;;;15.43;;
7933;SDS011;4012;48.896;9.192;2022-12-18T14:18:25;23.10;;;12.63;;
7933;SDS011;4012;48.896;9.192;2022-12-18T14:20:56;29.13;;;15.17;;
7933;SDS011;4012;48.896;9.192;2022-12-18T14:25:56;25.67;;;13.20;;
7933;SDS011;4012;48.896;9.192;2022-12-18T14:28:25;24.27;;;13.97;;
7933;SDS011;4012;48.896;9.192;2022-12-18T14:30:51;26.50;;;13.93;;
7933;SDS011;4012;48.896;9.192;2022-12-18T14:33:19;29.13;;;15.37;;
7933;SDS011;4012;48.896;9.192;2022-12-18T14:43:30;28.80;;;12.73;;
7933;SDS011;4012;48.896;9.192;2022-12-18T14:45:57;31.53;;;16.43;;
7933;SDS011;4012;48.896;9.192;2022-12-18T14:51:02;20.00;;;13.17;;
7933;SDS011;4012;48.896;9.192;2022-12-18T14:53:48;32.53;;;16.33;;
7933;SDS011;4012;48.896;9.192;2022-12-18T14:56:23;29.00;;;16.17;;
7933;SDS011;4012;48.896;9.192;2022-12-18T14:58:55;29.37;;;16.23;;
7933;SDS011;4012;48.896;9.192;2022-12-18T15:01:25;32.73;;;17.70;;
7933;SDS011;4012;48.896;9.192;2022-12-18T15:03:51;34.03;;;18.30;;
7933;SDS011;4012;48.896;9.192;2022-12-18T15:06:26;29.93;;;17.50;;
7933;SDS011;4012;48.896;9.192;2022-12-18T15:08:58;27.67;;;15.63;;
7933;SDS011;4012;48.896;9.192;2022-12-18T15:11:30;32.20;;;17.70;;
7933;SDS011;4012;48.896;9.192;2022-12-18T15:13:57;29.93;;;16.60;;
7933;SDS011;4012;48.896;9.192;2022-12-18T15:16:24;28.80;;;15.57;;
7933;SDS011;4012;48.896;9.192;2022-12-18T15:18:50;34.40;;;19.73;;
7933;SDS011;4012;48.896;9.192;2022-12-18T15:21:17;26.80;;;14.33;;
7933;SDS011;4012;48.896;9.192;2022-12-18T15:23:46;46.53;;;24.87;;
7933;SDS011;4012;48.896;9.192;2022-12-18T15:26:15;30.50;;;17.17;;
7933;SDS011;4012;48.896;9.192;2022-12-18T15:28:46;29.57;;;17.40;;
7933;SDS011;4012;48.896;9.192;2022-12-18T15:31:20;34.87;;;17.33;;
7933;SDS011;4012;48.896;9.192;2022-12-18T15:36:19;29.33;;;16.43;;
7933;SDS011;4012;48.896;9.192;2022-12-18T15:38:48;27.60;;;15.67;;
7933;SDS011;4012;48.896;9.192;2022-12-18T15:41:18;34.87;;;16.83;;
7933;SDS011;4012;48.896;9.192;2022-12-18T15:43:46;32.93;;;18.10;;
7933;SDS011;4012;48.896;9.192;2022-12-18T15:46:18;31.63;;;16.77;;
7933;SDS011;4012;48.896;9.192;2022-12-18T15:48:45;33.30;;;17.60;;
7933;SDS011;4012;48.896;9.192;2022-12-18T15:51:17;30.73;;;17.27;;
7933;SDS011;4012;48.896;9.192;2022-12-18T15:54:04;29.93;;;17.00;;
7933;SDS011;4012;48.896;9.192;2022-12-18T15:56:36;31.53;;;18.40;;
7933;SDS011;4012;48.896;9.192;2022-12-18T15:59:20;31.37;;;17.37;;
7933;SDS011;4012;48.896;9.192;2022-12-18T16:01:47;29.13;;;17.57;;
7933;SDS011;4012;48.896;9.192;2022-12-18T16:04:16;28.20;;;16.67;;
7933;SDS011;4012;48.896;9.192;2022-12-18T16:06:47;28.27;;;16.97;;
7933;SDS011;4012;48.896;9.192;2022-12-18T16:09:13;29.37;;;17.60;;
7933;SDS011;4012;48.896;9.192;2022-12-18T16:11:41;29.20;;;15.17;;
7933;SDS011;4012;48.896;9.192;2022-12-18T16:14:24;30.87;;;16.37;;
7933;SDS011;4012;48.896;9.192;2022-12-18T16:16:52;25.97;;;16.33;;
7933;SDS011;4012;48.896;9.192;2022-12-18T16:19:20;32.10;;;16.60;;
7933;SDS011;4012;48.896;9.192;2022-12-18T16:21:46;29.43;;;18.10;;
7933;SDS011;4012;48.896;9.192;2022-12-18T16:24:17;28.23;;;15.60;;
7933;SDS011;4012;48.896;9.192;2022-12-18T16:26:46;31.07;;;17.80;;
7933;SDS011;4012;48.896;9.192;2022-12-18T16:29:12;31.20;;;17.00;;
7933;SDS011;4012;48.896;9.192;2022-12-18T16:31:39;31.23;;;16.77;;
7933;SDS011;4012;48.896;9.192;2022-12-18T16:34:20;32.50;;;16.87;;
7933;SDS011;4012;48.896;9.192;2022-12-18T16:36:57;26.43;;;14.07;;
7933;SDS011;4012;48.896;9.192;2022-12-18T16:39:25;27.07;;;15.17;;
7933;SDS011;4012;48.896;9.192;2022-12-18T16:41:51;31.40;;;17.03;;
7933;SDS011;4012;48.896;9.192;2022-12-18T16:44:17;26.47;;;14.83;;
7933;SDS011;4012;48.896;9.192;2022-12-18T16:46:43;28.87;;;17.20;;
7933;SDS011;4012;48.896;9.192;2022-12-18T16:49:10;29.73;;;17.10;;
7933;SDS011;4012;48.896;9.192;2022-12-18T16:51:37;25.83;;;15.97;;
7933;SDS011;4012;48.896;9.192;2022-12-18T16:54:03;26.90;;;14.40;;
7933;SDS011;4012;48.896;9.192;2022-12-18T16:56:29;30.93;;;17.90;;
7933;SDS011;4012;48.896;9.192;2022-12-18T16:58:55;28.87;;;16.93;;
7933;SDS011;4012;48.896;9.192;2022-12-18T17:01:23;26.17;;;16.10;;
7933;SDS011;4012;48.896;9.192;2022-12-18T17:03:53;29.07;;;16.57;;
7933;SDS011;4012;48.896;9.192;2022-12-18T17:06:25;26.83;;;16.03;;
7933;SDS011;4012;48.896;9.192;2022-12-18T17:08:55;27.93;;;15.97;;
7933;SDS011;4012;48.896;9.192;2022-12-18T17:11:22;29.67;;;16.33;;
7933;SDS011;4012;48.896;9.192;2022-12-18T17:13:49;26.40;;;15.00;;